Brinkhaven, Ohio
Current Conditions -  °F | °C
As of 7:35 AM on Thursday 23 Oct 2014 (Local Time) from K4I3 Reporting Station
Haze Haze  
Wind Chill: 36°   Ceiling: 300
Heat Index: 41°   Visibility: 1.5mi
Dew Point: 41°   Wind: 8mph
Humidity: 100%   Direction: 340°NNW
Pressure: 30.2"   Gusts: NA
Location:  40.48°N, 82.15°W
Report Text: K4I3 231135Z AUTO 34007KT 1 1/2SM BR OVC003 05/05 A3020 RMK AO2
Loading
Personal Weather Stations






























Interactive Weather Map
Tropical Storm Tracking
New forecast layout! Learn more

10-Day Weather Forecast

Advertisements
Track Severe Weather on mobile